Kocubej, Russia
Current Conditions -  °F | °C
As of 3:30 PM on Friday 19 Dec 2014 (Local Time) from URML Reporting Station
Broken Clouds Broken Clouds  
Wind Chill: 39°   Ceiling: 10000
Heat Index: 43°   Visibility: 6mi
Dew Point: 37°   Wind: 7mph
Humidity: 81%   Direction: 20°NNE
Pressure: 30.09"   Gusts: NA
Location:  44.4°N, 46.55°E
Report Text: URML 191230Z 02003MPS 9999 BKN100 06/03 Q1019 NOSIG RMKQFE764/1019 SC070
Loading
Personal Weather Stations






























Interactive Weather Map New forecast layout! Learn more

10-Day Weather Forecast

Advertisements
Track Severe Weather on mobile